KVRB/VRB METAR and TAF weather

Enter ICAO airport designator
Station Type Date Time Source
KVRB METAR 2021/07/29 08:53 UTC NOAA

KVRB 290853Z AUTO 20003KT 10SM BKN005 24/23 A3001 RMK AO2 SLP159 T02390233 53001


Station Type Date Time Source
KVRB Decoded METAR 2021/07/29 08:53 UTC NOAA

VERO BEACH MUNICIPAL AIRPORT , FL, United States (KVRB) 27-39N 080-25W 10M
Jul 29, 2021 - 04:53 AM EDT / 2021.07.29 0853 UTC
Wind: from the SSW (200 degrees) at 3 MPH (3 KT):0
Visibility: 10 mile(s):0
Sky conditions: mostly cloudy
Temperature: 75.0 F (23.9 C)
Dew Point: 73.9 F (23.3 C)
Relative Humidity: 96%
Pressure (altimeter): 30.01 in. Hg (1016 hPa)
Pressure tendency: 0.00 inches (0.1 hPa) higher than three hours ago
ob: KVRB 290853Z AUTO 20003KT 10SM BKN005 24/23 A3001 RMK AO2 SLP159 T02390233 53001
cycle: 9

Station Type Date Time Source
KVRB TAF 2021/07/29 09:58 UTC NOAA

TAF
AMD KVRB 290858Z 2909/3006 VRB02KT P6SM SCT005 SCT250
TEMPO 2909/2910 BKN005
FM291400 25006KT P6SM FEW035 SCT040 SCT060
FM291900 13006KT P6SM VCTS BKN035CB BKN150
TEMPO 2920/2924 2SM TSRA SCT015 BKN030CB
FM300000 VRB03KT P6SM VCSH FEW035 SCT080 BKN250

Example: see airport list